createdAt,value
2024-04-14T00:00:51.018Z,125.33
2024-04-14T00:01:57.855Z,122.50
2024-04-14T00:03:04.575Z,125.57
2024-04-14T00:04:11.412Z,126.47
2024-04-14T00:05:18.257Z,135.50
2024-04-14T00:06:25.147Z,134.30
2024-04-14T00:07:31.866Z,129.77
2024-04-14T00:08:38.574Z,123.97
2024-04-14T00:09:45.332Z,128.40
2024-04-14T00:10:52.066Z,130.27
2024-04-14T00:11:58.754Z,125.33
2024-04-14T00:13:05.540Z,115.40
2024-04-14T00:14:12.337Z,118.23
2024-04-14T00:15:19.075Z,116.57
2024-04-14T00:16:25.789Z,114.97
2024-04-14T00:17:32.557Z,113.23
2024-04-14T00:18:39.790Z,121.30
2024-04-14T00:19:47.068Z,135.13
2024-04-14T00:20:54.288Z,132.03
2024-04-14T00:22:01.092Z,126.97
2024-04-14T00:23:07.813Z,123.17
2024-04-14T00:24:14.523Z,119.50
2024-04-14T00:25:21.247Z,113.50
2024-04-14T00:26:28.018Z,116.33
2024-04-14T00:27:34.765Z,114.40
2024-04-14T00:28:41.463Z,114.87
2024-04-14T00:29:48.201Z,109.47
2024-04-14T00:30:55.108Z,105.27
2024-04-14T00:32:02.071Z,108.83
2024-04-14T00:33:08.835Z,111.23
2024-04-14T00:34:15.642Z,111.67
2024-04-14T00:35:22.325Z,112.37
2024-04-14T00:36:29.110Z,110.90
2024-04-14T00:37:35.820Z,114.43
2024-04-14T00:38:42.534Z,115.33
2024-04-14T00:39:49.324Z,115.20
2024-04-14T00:40:56.036Z,113.30
2024-04-14T00:42:02.796Z,108.40
2024-04-14T00:43:09.542Z,113.07
2024-04-14T00:44:16.263Z,116.60
2024-04-14T00:45:23.025Z,120.20
2024-04-14T00:46:29.751Z,122.27
2024-04-14T00:47:36.595Z,119.80
2024-04-14T00:48:43.419Z,126.63
2024-04-14T00:49:50.162Z,131.30
2024-04-14T00:50:56.898Z,129.83
2024-04-14T00:52:03.727Z,125.20
2024-04-14T00:53:10.492Z,130.93
2024-04-14T00:54:17.214Z,131.13
2024-04-14T00:55:23.937Z,133.17
2024-04-14T00:56:30.674Z,129.90
2024-04-14T00:57:37.489Z,132.90
2024-04-14T00:58:44.252Z,128.57
2024-04-14T00:59:50.972Z,131.27
2024-04-14T01:00:57.784Z,128.30
2024-04-14T01:02:07.468Z,134.77
2024-04-14T01:03:14.427Z,130.83
2024-04-14T01:04:21.214Z,131.80
2024-04-14T01:05:27.939Z,129.40
2024-04-14T01:06:34.700Z,132.07
2024-04-14T01:07:41.413Z,126.13
2024-04-14T01:08:48.140Z,127.30
2024-04-14T01:09:54.962Z,119.93
2024-04-14T01:11:01.729Z,112.53
2024-04-14T01:12:08.442Z,109.47
2024-04-14T01:13:15.145Z,114.57
2024-04-14T01:14:21.893Z,111.70
2024-04-14T01:15:28.601Z,112.20
2024-04-14T01:16:35.316Z,110.33
2024-04-14T01:17:42.167Z,106.97
2024-04-14T01:18:49.004Z,121.97
2024-04-14T01:19:55.686Z,126.70
2024-04-14T01:21:02.413Z,129.37
2024-04-14T01:22:09.202Z,125.10
2024-04-14T01:23:15.932Z,132.17
2024-04-14T01:24:22.670Z,133.37
2024-04-14T01:25:29.396Z,130.00
2024-04-14T01:26:36.114Z,117.17
2024-04-14T01:27:42.895Z,110.57
2024-04-14T01:28:49.615Z,115.83
2024-04-14T01:29:56.326Z,117.13
2024-04-14T01:31:03.168Z,117.27
2024-04-14T01:32:10.047Z,118.20
2024-04-14T01:33:16.783Z,126.53
2024-04-14T01:34:23.494Z,128.77
2024-04-14T01:35:30.223Z,122.90
2024-04-14T01:36:36.969Z,114.90
2024-04-14T01:37:43.745Z,101.83
2024-04-14T01:38:50.453Z,108.60
2024-04-14T01:39:57.317Z,112.93
2024-04-14T01:41:04.089Z,111.73
2024-04-14T01:42:10.816Z,116.07
2024-04-14T01:43:17.564Z,116.77
2024-04-14T01:44:24.307Z,115.03
2024-04-14T01:45:31.110Z,112.60
2024-04-14T01:46:37.840Z,111.87
2024-04-14T01:47:44.673Z,112.13
2024-04-14T01:48:51.618Z,112.43
2024-04-14T01:49:58.342Z,109.77
2024-04-14T01:51:05.079Z,113.70
2024-04-14T01:52:11.795Z,112.53
2024-04-14T01:53:18.517Z,111.53
2024-04-14T01:54:25.269Z,106.43
2024-04-14T01:55:31.990Z,112.43
2024-04-14T01:56:38.745Z,114.47
2024-04-14T01:57:45.513Z,113.87
2024-04-14T01:58:52.227Z,112.87
2024-04-14T01:59:58.965Z,112.23
2024-04-14T02:01:05.756Z,110.70
2024-04-14T02:02:12.513Z,109.10
2024-04-14T02:03:19.381Z,109.90
2024-04-14T02:04:26.266Z,106.83
2024-04-14T02:05:32.977Z,108.07
2024-04-14T02:06:39.721Z,107.40
2024-04-14T02:07:46.436Z,107.93
2024-04-14T02:08:53.160Z,106.13
2024-04-14T02:09:59.924Z,109.40
2024-04-14T02:11:06.684Z,109.63
2024-04-14T02:12:13.389Z,111.50
2024-04-14T02:13:20.124Z,110.93
2024-04-14T02:14:26.857Z,106.60
2024-04-14T02:15:33.575Z,117.53
2024-04-14T02:16:40.297Z,123.10
2024-04-14T02:17:47.082Z,125.90
2024-04-14T02:18:53.879Z,126.40
2024-04-14T02:20:00.603Z,124.77
2024-04-14T02:21:07.322Z,123.43
2024-04-14T02:22:14.046Z,121.63
2024-04-14T02:23:20.801Z,121.07
2024-04-14T02:24:27.569Z,115.13
2024-04-14T02:25:34.228Z,121.73
2024-04-14T02:26:40.990Z,126.60
2024-04-14T02:27:47.715Z,129.70
2024-04-14T02:28:54.442Z,127.47
2024-04-14T02:30:01.197Z,127.90
2024-04-14T02:31:07.928Z,122.47
2024-04-14T02:32:14.713Z,118.17
2024-04-14T02:33:21.442Z,117.40
2024-04-14T02:34:28.159Z,116.73
2024-04-14T02:35:34.892Z,116.07
2024-04-14T02:36:41.633Z,115.77
2024-04-14T02:37:48.430Z,114.07
2024-04-14T02:38:55.163Z,109.67
2024-04-14T02:40:01.930Z,113.13
2024-04-14T02:41:08.652Z,109.20
2024-04-14T02:42:15.381Z,109.90
2024-04-14T02:43:22.138Z,106.93
2024-04-14T02:44:28.863Z,111.50
2024-04-14T02:45:35.632Z,111.40
2024-04-14T02:46:42.342Z,111.40
2024-04-14T02:47:49.108Z,113.83
2024-04-14T02:48:55.934Z,112.80
2024-04-14T02:50:02.746Z,120.07
2024-04-14T02:51:09.484Z,118.30
2024-04-14T02:52:16.229Z,118.07
2024-04-14T02:53:22.976Z,111.73
2024-04-14T02:54:29.719Z,114.70
2024-04-14T02:55:36.428Z,113.73
2024-04-14T02:56:43.223Z,116.73
2024-04-14T02:57:49.932Z,119.33
2024-04-14T02:58:56.659Z,112.00
2024-04-14T03:00:03.369Z,115.00
2024-04-14T03:01:10.215Z,113.07
2024-04-14T03:02:17.043Z,113.63
2024-04-14T03:03:23.813Z,113.43
2024-04-14T03:04:30.617Z,114.30
2024-04-14T03:05:37.403Z,115.70
2024-04-14T03:06:44.194Z,119.07
2024-04-14T03:07:50.987Z,114.50
2024-04-14T03:08:57.749Z,117.90
2024-04-14T03:10:04.493Z,120.97
2024-04-14T03:11:11.233Z,124.77
2024-04-14T03:12:17.916Z,124.87
2024-04-14T03:13:24.678Z,118.90
2024-04-14T03:14:31.412Z,121.33
2024-04-14T03:15:38.167Z,120.93
2024-04-14T03:16:44.984Z,119.30
2024-04-14T03:17:51.802Z,113.90
2024-04-14T03:18:58.708Z,116.57
2024-04-14T03:20:05.547Z,122.20
2024-04-14T03:21:12.264Z,126.33
2024-04-14T03:22:18.974Z,123.73
2024-04-14T03:23:25.754Z,122.20
2024-04-14T03:24:32.518Z,117.73
2024-04-14T03:25:39.258Z,117.93
2024-04-14T03:26:45.989Z,113.13
2024-04-14T03:27:52.732Z,111.80
2024-04-14T03:28:59.425Z,114.80
2024-04-14T03:30:06.161Z,116.37
2024-04-14T03:31:13.037Z,115.73
2024-04-14T03:32:19.783Z,114.47
2024-04-14T03:33:26.518Z,113.00
2024-04-14T03:34:33.242Z,112.23
2024-04-14T03:35:39.957Z,112.87
2024-04-14T03:36:46.723Z,112.40
2024-04-14T03:37:53.425Z,114.33
2024-04-14T03:39:00.172Z,110.70
2024-04-14T03:40:06.923Z,116.37
2024-04-14T03:41:13.617Z,118.67
2024-04-14T03:42:20.317Z,119.83
2024-04-14T03:43:27.060Z,120.23
2024-04-14T03:44:33.809Z,114.47
2024-04-14T03:45:40.595Z,116.07
2024-04-14T03:46:47.440Z,114.73
2024-04-14T03:47:54.238Z,116.73
2024-04-14T03:49:01.002Z,113.33
2024-04-14T03:50:07.732Z,118.17
2024-04-14T03:51:14.448Z,115.13
2024-04-14T03:52:21.177Z,112.57
2024-04-14T03:53:27.887Z,110.53
2024-04-14T03:54:34.659Z,108.67
2024-04-14T03:55:41.347Z,112.93
2024-04-14T03:56:48.070Z,113.13
2024-04-14T03:57:54.946Z,118.47
2024-04-14T03:59:01.703Z,125.40
2024-04-14T04:00:08.448Z,122.33
2024-04-14T04:01:15.248Z,126.33
2024-04-14T04:02:22.091Z,123.90
2024-04-14T04:03:28.841Z,119.40
2024-04-14T04:04:35.631Z,120.27
2024-04-14T04:05:42.332Z,132.73
2024-04-14T04:06:49.085Z,131.87
2024-04-14T04:07:55.794Z,126.83
2024-04-14T04:09:02.537Z,125.60
2024-04-14T04:10:09.251Z,119.97
2024-04-14T04:11:15.983Z,124.53
2024-04-14T04:12:22.693Z,129.80
2024-04-14T04:13:29.419Z,136.73
2024-04-14T04:14:36.187Z,135.60
2024-04-14T04:15:42.939Z,126.57
2024-04-14T04:16:49.699Z,128.57
2024-04-14T04:17:56.545Z,127.73
2024-04-14T04:19:11.280Z,133.83
2024-04-14T04:20:14.919Z,139.00
2024-04-14T04:21:21.637Z,139.63
2024-04-14T04:22:28.343Z,137.73
2024-04-14T04:23:35.075Z,137.40
2024-04-14T04:24:41.851Z,136.83
2024-04-14T04:25:48.562Z,137.53
2024-04-14T04:26:55.339Z,138.27
2024-04-14T04:28:02.051Z,139.90
2024-04-14T04:29:08.810Z,142.57
2024-04-14T04:30:15.532Z,140.60
2024-04-14T04:31:22.240Z,134.67
2024-04-14T04:32:29.066Z,138.50
2024-04-14T04:33:35.958Z,136.13
2024-04-14T04:34:42.746Z,137.83
2024-04-14T04:35:49.475Z,136.97
2024-04-14T04:36:56.310Z,143.07
2024-04-14T04:38:03.061Z,135.33
2024-04-14T04:39:09.863Z,133.30
2024-04-14T04:40:16.565Z,130.60
2024-04-14T04:41:23.282Z,126.87
2024-04-14T04:42:30.025Z,164.63
2024-04-14T04:43:36.737Z,173.97
2024-04-14T04:44:43.469Z,165.50
2024-04-14T04:45:50.223Z,156.57
2024-04-14T04:46:56.912Z,147.27
2024-04-14T04:48:03.721Z,149.47
2024-04-14T04:49:10.588Z,148.50
2024-04-14T04:50:17.371Z,150.27
2024-04-14T04:51:24.130Z,149.97
2024-04-14T04:52:30.866Z,141.40
2024-04-14T04:53:37.576Z,144.23
2024-04-14T04:54:44.349Z,142.97
2024-04-14T04:55:51.019Z,140.73
2024-04-14T04:56:57.750Z,130.83
2024-04-14T04:58:04.562Z,122.40
2024-04-14T04:59:11.290Z,124.40
2024-04-14T05:00:18.028Z,126.30
2024-04-14T05:01:24.886Z,128.30
2024-04-14T05:02:31.684Z,124.37
2024-04-14T05:03:38.666Z,121.30
2024-04-14T05:04:45.576Z,124.73
2024-04-14T05:05:52.267Z,128.13
2024-04-14T05:06:59.101Z,129.37
2024-04-14T05:08:05.848Z,135.47
2024-04-14T05:09:12.575Z,141.73
2024-04-14T05:10:19.297Z,144.10
2024-04-14T05:11:26.112Z,143.00
2024-04-14T05:12:32.916Z,138.00
2024-04-14T05:13:39.799Z,143.03
2024-04-14T05:14:46.533Z,143.87
2024-04-14T05:15:53.308Z,145.70
2024-04-14T05:17:00.020Z,147.03
2024-04-14T05:18:06.871Z,141.40
2024-04-14T05:19:13.681Z,147.97
2024-04-14T05:20:20.410Z,152.03
2024-04-14T05:21:27.187Z,153.27
2024-04-14T05:22:33.931Z,151.53
2024-04-14T05:23:40.687Z,144.10
2024-04-14T05:24:47.400Z,143.60
2024-04-14T05:25:54.112Z,145.43
2024-04-14T05:27:00.834Z,139.27
2024-04-14T05:28:07.576Z,135.43
2024-04-14T05:29:14.305Z,133.53
2024-04-14T05:30:21.036Z,125.13
2024-04-14T05:31:27.735Z,122.77
2024-04-14T05:32:35.900Z,127.00
2024-04-14T05:33:44.664Z,115.23
2024-04-14T05:34:51.384Z,107.17
2024-04-14T05:35:58.174Z,112.30
2024-04-14T05:37:04.918Z,116.63
2024-04-14T05:38:11.612Z,122.70
2024-04-14T05:39:18.351Z,128.87
2024-04-14T05:40:25.068Z,128.77
2024-04-14T05:41:31.793Z,135.67
2024-04-14T05:42:38.608Z,135.30
2024-04-14T05:43:45.351Z,134.67
2024-04-14T05:44:52.086Z,131.20
2024-04-14T05:45:58.883Z,125.33
2024-04-14T05:47:05.773Z,130.70
2024-04-14T05:48:12.570Z,133.57
2024-04-14T05:49:20.040Z,135.67
2024-04-14T05:50:26.875Z,137.67
2024-04-14T05:51:33.641Z,139.47
2024-04-14T05:52:40.330Z,141.00
2024-04-14T05:53:47.037Z,139.77
2024-04-14T05:54:53.840Z,145.20
2024-04-14T05:56:00.580Z,141.40
2024-04-14T05:57:07.274Z,138.17
2024-04-14T05:58:13.998Z,135.40
2024-04-14T05:59:20.756Z,132.83
2024-04-14T06:00:27.554Z,132.50
2024-04-14T06:01:34.456Z,131.57
2024-04-14T06:02:41.297Z,128.73
2024-04-14T06:03:48.079Z,123.70
2024-04-14T06:04:54.906Z,130.00
2024-04-14T06:06:01.608Z,131.93
2024-04-14T06:07:08.375Z,131.00
2024-04-14T06:08:15.066Z,130.07
2024-04-14T06:09:21.776Z,124.67
2024-04-14T06:10:28.547Z,129.57
2024-04-14T06:11:35.252Z,129.03
2024-04-14T06:12:41.987Z,125.83
2024-04-14T06:13:48.691Z,123.97
2024-04-14T06:14:55.405Z,118.57
2024-04-14T06:16:02.249Z,123.13
2024-04-14T06:17:09.072Z,123.17
2024-04-14T06:18:15.763Z,123.30
2024-04-14T06:19:22.465Z,118.40
2024-04-14T06:20:29.218Z,121.23
2024-04-14T06:21:35.990Z,120.97
2024-04-14T06:22:42.694Z,119.03
2024-04-14T06:23:49.408Z,111.63
2024-04-14T06:24:56.222Z,113.43
2024-04-14T06:26:03.003Z,112.70
2024-04-14T06:27:09.763Z,109.67
2024-04-14T06:28:16.531Z,103.50
2024-04-14T06:29:23.255Z,106.60
2024-04-14T06:30:30.062Z,104.87
2024-04-14T06:31:36.751Z,107.10
2024-04-14T06:32:43.567Z,103.07
2024-04-14T06:33:50.432Z,106.03
2024-04-14T06:34:57.259Z,106.13
2024-04-14T06:36:04.026Z,106.57
2024-04-14T06:37:10.744Z,102.10
2024-04-14T06:38:17.472Z,103.63
2024-04-14T06:39:24.209Z,101.50
2024-04-14T06:40:30.935Z,100.30
2024-04-14T06:41:37.672Z,96.63
2024-04-14T06:42:44.447Z,98.00
2024-04-14T06:43:51.134Z,97.03
2024-04-14T06:44:57.887Z,95.80
2024-04-14T06:46:04.693Z,92.70
2024-04-14T06:47:11.414Z,96.43
2024-04-14T06:48:18.163Z,94.73
2024-04-14T06:49:24.861Z,92.37
2024-04-14T06:50:31.597Z,87.20
2024-04-14T06:51:38.379Z,87.67
2024-04-14T06:52:45.162Z,87.30
2024-04-14T06:53:51.877Z,88.47
2024-04-14T06:54:58.668Z,84.13
2024-04-14T06:56:05.477Z,86.50
2024-04-14T06:57:12.223Z,86.63
2024-04-14T06:58:18.932Z,85.93
2024-04-14T06:59:25.637Z,81.17
2024-04-14T07:00:32.468Z,88.43
2024-04-14T07:01:39.413Z,89.70
2024-04-14T07:02:46.166Z,90.20
2024-04-14T07:03:52.925Z,88.50
2024-04-14T07:04:59.705Z,88.83
2024-04-14T07:06:06.467Z,86.73
2024-04-14T07:07:13.198Z,84.03
2024-04-14T07:08:19.933Z,84.27
2024-04-14T07:09:26.676Z,84.10
2024-04-14T07:10:33.416Z,83.83
2024-04-14T07:11:40.234Z,81.53
2024-04-14T07:12:47.104Z,80.60
2024-04-14T07:13:53.890Z,79.90
2024-04-14T07:15:00.612Z,80.97
2024-04-14T07:16:07.421Z,83.13
2024-04-14T07:17:14.269Z,84.43
2024-04-14T07:18:21.051Z,84.77
2024-04-14T07:19:27.890Z,84.73
2024-04-14T07:20:34.632Z,80.60
2024-04-14T07:21:41.430Z,84.53
2024-04-14T07:22:48.163Z,85.80
2024-04-14T07:23:54.862Z,86.33
2024-04-14T07:25:01.846Z,83.20
2024-04-14T07:26:08.690Z,85.67
2024-04-14T07:27:15.452Z,86.63
2024-04-14T07:28:22.277Z,85.37
2024-04-14T07:29:28.993Z,80.73
2024-04-14T07:30:35.744Z,82.50
2024-04-14T07:31:42.458Z,83.00
2024-04-14T07:32:49.283Z,80.17
2024-04-14T07:33:56.052Z,80.77
2024-04-14T07:35:02.784Z,80.20
2024-04-14T07:36:09.486Z,80.33
2024-04-14T07:37:16.250Z,79.60
2024-04-14T07:38:22.980Z,76.67
2024-04-14T07:39:29.721Z,78.83
2024-04-14T07:40:36.419Z,77.77
2024-04-14T07:41:43.141Z,75.53
2024-04-14T07:42:50.063Z,75.97
2024-04-14T07:43:56.933Z,75.53
2024-04-14T07:45:03.636Z,75.40
2024-04-14T07:46:10.407Z,71.90
2024-04-14T07:47:17.175Z,71.67
2024-04-14T07:48:24.004Z,73.23
2024-04-14T07:49:30.833Z,72.70
2024-04-14T07:50:37.599Z,71.07
2024-04-14T07:51:44.362Z,71.07
2024-04-14T07:52:51.123Z,72.40
2024-04-14T07:53:57.855Z,71.30
2024-04-14T07:55:04.653Z,70.73
2024-04-14T07:56:11.362Z,69.47
2024-04-14T07:57:18.092Z,68.67
2024-04-14T07:58:24.854Z,67.50
2024-04-14T07:59:31.588Z,68.23
2024-04-14T08:00:38.392Z,67.37
2024-04-14T08:01:45.179Z,68.23
2024-04-14T08:02:51.991Z,71.77
2024-04-14T08:03:58.837Z,71.70
2024-04-14T08:05:05.696Z,72.23
2024-04-14T08:06:12.418Z,73.50
2024-04-14T08:07:19.149Z,69.40
2024-04-14T08:08:25.917Z,69.83
2024-04-14T08:09:32.717Z,69.37
2024-04-14T08:10:39.466Z,68.37
2024-04-14T08:11:46.213Z,71.37
2024-04-14T08:12:52.984Z,72.50
2024-04-14T08:13:59.729Z,71.97
2024-04-14T08:15:06.438Z,69.57
2024-04-14T08:16:13.492Z,72.40
2024-04-14T08:17:20.352Z,71.70
2024-04-14T08:18:27.131Z,71.17
2024-04-14T08:19:33.871Z,69.33
2024-04-14T08:20:40.590Z,67.47
2024-04-14T08:21:47.352Z,64.40
2024-04-14T08:22:54.107Z,66.57
2024-04-14T08:24:00.870Z,67.63
2024-04-14T08:25:07.672Z,68.13
2024-04-14T08:26:14.423Z,67.93
2024-04-14T08:27:21.152Z,67.77
2024-04-14T08:28:27.926Z,68.83
2024-04-14T08:29:34.662Z,68.87
2024-04-14T08:30:41.440Z,69.07
2024-04-14T08:31:48.171Z,72.10
2024-04-14T08:32:54.939Z,72.83
2024-04-14T08:34:05.322Z,75.53
2024-04-14T08:35:13.305Z,75.90
2024-04-14T08:36:20.001Z,75.20
2024-04-14T08:37:26.769Z,74.17
2024-04-14T08:38:33.527Z,76.10
2024-04-14T08:39:40.295Z,75.50
2024-04-14T08:40:47.030Z,74.87
2024-04-14T08:41:53.770Z,75.53
2024-04-14T08:43:00.587Z,76.07
2024-04-14T08:44:07.421Z,73.20
2024-04-14T08:45:14.156Z,70.73
2024-04-14T08:46:20.983Z,71.30
2024-04-14T08:47:27.800Z,73.33
2024-04-14T08:48:34.587Z,74.27
2024-04-14T08:49:41.375Z,75.30
2024-04-14T08:50:48.122Z,73.60
2024-04-14T08:51:54.924Z,70.33
2024-04-14T08:53:01.610Z,69.33
2024-04-14T08:54:08.385Z,69.90
2024-04-14T08:55:15.111Z,66.53
2024-04-14T08:56:21.851Z,65.37
2024-04-14T08:57:28.612Z,67.27
2024-04-14T08:58:35.317Z,66.97
2024-04-14T08:59:42.073Z,62.70
2024-04-14T09:00:48.900Z,65.80
2024-04-14T09:01:55.774Z,67.00
2024-04-14T09:03:02.599Z,70.90
2024-04-14T09:04:09.422Z,72.13
2024-04-14T09:05:16.260Z,74.27
2024-04-14T09:06:23.019Z,72.30
2024-04-14T09:07:29.778Z,69.63
2024-04-14T09:08:36.514Z,64.27
2024-04-14T09:09:43.258Z,64.43
2024-04-14T09:10:50.009Z,62.37
2024-04-14T09:11:56.722Z,60.93
2024-04-14T09:13:05.011Z,60.20
2024-04-14T09:14:13.913Z,57.03
2024-04-14T09:15:20.701Z,58.47
2024-04-14T09:16:27.483Z,55.27
2024-04-14T09:17:34.345Z,57.03
2024-04-14T09:18:41.096Z,59.60
2024-04-14T09:19:47.887Z,63.10
2024-04-14T09:20:54.638Z,64.90
2024-04-14T09:22:01.424Z,62.60
2024-04-14T09:23:08.191Z,66.80
2024-04-14T09:24:14.914Z,66.20
2024-04-14T09:25:21.726Z,56.17
2024-04-14T09:26:28.481Z,57.40
2024-04-14T09:27:35.252Z,58.03
2024-04-14T09:28:41.967Z,58.03
2024-04-14T09:29:48.743Z,55.83
2024-04-14T09:30:55.487Z,56.03
2024-04-14T09:32:05.326Z,57.43
2024-04-14T09:33:12.565Z,58.90
2024-04-14T09:34:19.346Z,59.03
2024-04-14T09:35:26.049Z,57.87
2024-04-14T09:36:32.826Z,57.87
2024-04-14T09:37:39.616Z,58.80
2024-04-14T09:38:46.457Z,59.80
2024-04-14T09:39:53.290Z,62.50
2024-04-14T09:41:00.007Z,59.47
2024-04-14T09:42:06.729Z,58.60
2024-04-14T09:43:13.475Z,58.10
2024-04-14T09:44:23.278Z,59.17
2024-04-14T09:45:30.242Z,60.83
2024-04-14T09:46:36.929Z,63.17
2024-04-14T09:47:43.743Z,61.77
2024-04-14T09:48:50.508Z,63.20
2024-04-14T09:49:57.264Z,61.97
2024-04-14T09:51:03.989Z,59.17
2024-04-14T09:52:10.759Z,57.97
2024-04-14T09:53:17.449Z,62.20
2024-04-14T09:54:24.194Z,57.10
2024-04-14T09:55:30.956Z,59.80
2024-04-14T09:56:37.700Z,59.73
2024-04-14T09:57:44.485Z,61.00
2024-04-14T09:58:51.152Z,56.80
2024-04-14T09:59:57.893Z,59.07
2024-04-14T10:01:04.699Z,59.63
2024-04-14T10:02:11.472Z,57.80
2024-04-14T10:03:18.215Z,60.63
2024-04-14T10:04:25.047Z,60.47
2024-04-14T10:05:31.889Z,60.93
2024-04-14T10:06:38.714Z,62.63
2024-04-14T10:07:45.450Z,64.40
2024-04-14T10:08:52.186Z,67.03
2024-04-14T10:09:58.983Z,66.03
2024-04-14T10:11:05.833Z,67.40
2024-04-14T10:12:12.649Z,66.87
2024-04-14T10:13:19.386Z,66.37
2024-04-14T10:14:26.123Z,55.07
2024-04-14T10:15:32.902Z,58.97
2024-04-14T10:16:39.682Z,60.40
2024-04-14T10:17:46.420Z,57.70
2024-04-14T10:18:53.288Z,56.13
2024-04-14T10:20:00.135Z,58.67
2024-04-14T10:21:06.866Z,58.70
2024-04-14T10:22:13.583Z,55.73
2024-04-14T10:23:20.323Z,55.27
2024-04-14T10:24:27.066Z,56.07
2024-04-14T10:25:33.853Z,52.73
2024-04-14T10:26:40.562Z,48.87
2024-04-14T10:27:47.322Z,55.17
2024-04-14T10:28:54.061Z,53.60
2024-04-14T10:30:00.790Z,52.93
2024-04-14T10:31:07.610Z,53.83
2024-04-14T10:32:14.333Z,54.53
2024-04-14T10:33:21.149Z,55.30
2024-04-14T10:34:27.945Z,54.57
2024-04-14T10:35:34.790Z,53.80
2024-04-14T10:36:42.017Z,54.07
2024-04-14T10:37:48.904Z,54.07
2024-04-14T10:38:55.628Z,50.97
2024-04-14T10:40:02.454Z,51.00
2024-04-14T10:41:09.234Z,55.87
2024-04-14T10:42:15.948Z,55.47
2024-04-14T10:43:22.679Z,51.53
2024-04-14T10:44:29.400Z,51.33
2024-04-14T10:45:36.192Z,50.83
2024-04-14T10:46:42.951Z,48.50
2024-04-14T10:47:49.687Z,49.23
2024-04-14T10:48:56.951Z,50.03
2024-04-14T10:50:03.768Z,50.77
2024-04-14T10:51:10.505Z,52.77
2024-04-14T10:52:17.235Z,54.10
2024-04-14T10:53:23.967Z,54.63
2024-04-14T10:54:30.815Z,52.13
2024-04-14T10:55:37.638Z,52.50
2024-04-14T10:56:47.424Z,54.00
2024-04-14T10:57:55.450Z,52.83
2024-04-14T10:59:02.179Z,51.20
2024-04-14T11:00:08.912Z,49.27
2024-04-14T11:01:15.735Z,49.73
2024-04-14T11:02:22.522Z,47.37
2024-04-14T11:03:29.408Z,48.77
2024-04-14T11:04:36.326Z,48.67
2024-04-14T11:05:43.132Z,47.47
2024-04-14T11:06:49.911Z,46.73
2024-04-14T11:07:56.605Z,47.00
2024-04-14T11:09:03.338Z,49.67
2024-04-14T11:10:10.130Z,49.80
2024-04-14T11:11:16.861Z,49.10
2024-04-14T11:12:23.624Z,47.20
2024-04-14T11:13:30.326Z,48.93
2024-04-14T11:14:37.046Z,50.10
2024-04-14T11:15:43.937Z,49.40
2024-04-14T11:16:50.869Z,50.10
2024-04-14T11:17:57.680Z,51.87
2024-04-14T11:19:04.508Z,49.87
2024-04-14T11:20:11.329Z,51.37
2024-04-14T11:21:18.071Z,52.30
2024-04-14T11:22:24.789Z,53.93
2024-04-14T11:23:31.536Z,54.73
2024-04-14T11:24:38.269Z,54.90
2024-04-14T11:25:45.043Z,53.53
2024-04-14T11:26:51.778Z,55.17
2024-04-14T11:27:58.554Z,54.67
2024-04-14T11:29:05.227Z,52.93
2024-04-14T11:30:11.962Z,55.60
2024-04-14T11:31:18.757Z,52.97
2024-04-14T11:32:25.554Z,53.27
2024-04-14T11:33:32.427Z,52.03
2024-04-14T11:34:39.275Z,50.33
2024-04-14T11:35:46.038Z,47.00
2024-04-14T11:36:52.776Z,52.83
2024-04-14T11:37:59.508Z,54.20
2024-04-14T11:39:06.262Z,54.77
2024-04-14T11:40:13.047Z,56.03
2024-04-14T11:41:19.850Z,56.00
2024-04-14T11:42:26.577Z,51.07
2024-04-14T11:43:33.321Z,50.57
2024-04-14T11:44:40.080Z,51.33
2024-04-14T11:45:46.871Z,48.60
2024-04-14T11:46:53.644Z,50.13
2024-04-14T11:48:00.383Z,50.60
2024-04-14T11:49:07.187Z,51.53
2024-04-14T11:50:13.905Z,51.03
2024-04-14T11:51:20.649Z,51.93
2024-04-14T11:52:27.370Z,52.30
2024-04-14T11:53:34.110Z,52.17
2024-04-14T11:54:40.854Z,50.43
2024-04-14T11:55:47.633Z,46.80
2024-04-14T11:56:54.405Z,47.90
2024-04-14T11:58:01.222Z,51.20
2024-04-14T11:59:07.962Z,53.37
2024-04-14T12:00:14.702Z,52.73
2024-04-14T12:01:21.541Z,49.13
2024-04-14T12:02:28.296Z,49.60
2024-04-14T12:03:35.046Z,48.73
2024-04-14T12:04:41.787Z,47.97
2024-04-14T12:05:48.526Z,48.93
2024-04-14T12:06:55.274Z,48.90
2024-04-14T12:08:02.030Z,49.33
2024-04-14T12:09:08.771Z,52.90
2024-04-14T12:10:15.573Z,52.90
2024-04-14T12:11:22.392Z,52.37
2024-04-14T12:12:29.210Z,52.43
2024-04-14T12:13:35.947Z,54.53
2024-04-14T12:14:42.680Z,55.90
2024-04-14T12:15:49.437Z,56.17
2024-04-14T12:16:56.264Z,56.23
2024-04-14T12:18:03.096Z,54.20
2024-04-14T12:19:09.922Z,43.53
2024-04-14T12:20:16.662Z,46.47
2024-04-14T12:21:23.375Z,47.67
2024-04-14T12:22:30.142Z,48.63
2024-04-14T12:23:36.893Z,49.00
2024-04-14T12:24:43.662Z,50.80
2024-04-14T12:25:50.430Z,48.97
2024-04-14T12:26:57.178Z,50.53
2024-04-14T12:28:04.094Z,48.43
2024-04-14T12:29:10.903Z,47.40
2024-04-14T12:30:17.717Z,47.17
2024-04-14T12:31:24.550Z,48.60
2024-04-14T12:32:31.402Z,46.87
2024-04-14T12:33:38.199Z,51.20
2024-04-14T12:34:45.038Z,50.70
2024-04-14T12:35:51.823Z,53.00
2024-04-14T12:36:58.640Z,52.20
2024-04-14T12:38:05.396Z,52.10
2024-04-14T12:39:17.181Z,51.63
2024-04-14T12:40:23.810Z,43.43
2024-04-14T12:41:30.550Z,54.83
2024-04-14T12:42:37.395Z,57.27
2024-04-14T12:43:44.140Z,53.47
2024-04-14T12:44:50.896Z,55.83
2024-04-14T12:45:57.686Z,55.40
2024-04-14T12:47:04.506Z,55.73
2024-04-14T12:48:11.499Z,55.07
2024-04-14T12:49:18.272Z,54.23
2024-04-14T12:50:32.614Z,51.40
2024-04-14T12:51:36.668Z,54.13
2024-04-14T12:52:43.407Z,53.40
2024-04-14T12:53:50.169Z,58.23
2024-04-14T12:54:56.971Z,52.40
2024-04-14T12:56:03.708Z,47.40
2024-04-14T12:57:10.466Z,55.13
2024-04-14T12:58:17.226Z,52.83
2024-04-14T12:59:23.971Z,49.90
2024-04-14T13:00:30.729Z,57.60
2024-04-14T13:01:37.528Z,53.60
2024-04-14T13:02:44.322Z,54.73
2024-04-14T13:03:51.164Z,55.83
2024-04-14T13:04:57.997Z,55.30
2024-04-14T13:06:04.758Z,55.73
2024-04-14T13:07:11.656Z,56.37
2024-04-14T13:08:18.525Z,52.47
2024-04-14T13:09:25.245Z,55.60
2024-04-14T13:10:31.997Z,57.57
2024-04-14T13:11:38.727Z,57.33
2024-04-14T13:12:45.550Z,58.20
2024-04-14T13:13:52.265Z,59.27
2024-04-14T13:14:58.996Z,60.37
2024-04-14T13:16:05.849Z,59.23
2024-04-14T13:17:12.619Z,61.13
2024-04-14T13:18:19.399Z,59.07
2024-04-14T13:19:26.121Z,60.13
2024-04-14T13:20:32.877Z,60.77
2024-04-14T13:21:39.667Z,57.63
2024-04-14T13:22:46.383Z,51.90
2024-04-14T13:23:53.100Z,52.37
2024-04-14T13:24:59.843Z,51.80
2024-04-14T13:26:06.582Z,51.60
2024-04-14T13:27:13.344Z,55.40
2024-04-14T13:28:20.091Z,52.47
2024-04-14T13:29:28.614Z,57.90
2024-04-14T13:30:37.179Z,58.03
2024-04-14T13:31:43.918Z,54.00
2024-04-14T13:32:50.765Z,54.57
2024-04-14T13:33:57.663Z,51.00
2024-04-14T13:35:04.459Z,54.97
2024-04-14T13:36:11.173Z,54.13
2024-04-14T13:37:17.936Z,52.50
2024-04-14T13:38:24.686Z,52.10
2024-04-14T13:39:31.517Z,52.30
2024-04-14T13:40:38.299Z,51.47
2024-04-14T13:41:45.030Z,54.53
2024-04-14T13:42:51.818Z,54.33
2024-04-14T13:43:58.512Z,53.07
2024-04-14T13:45:05.256Z,53.87
2024-04-14T13:46:12.017Z,52.80
2024-04-14T13:47:18.765Z,54.73
2024-04-14T13:48:25.513Z,52.27
2024-04-14T13:49:35.634Z,49.67
2024-04-14T13:50:42.917Z,50.80
2024-04-14T13:51:49.647Z,53.33
2024-04-14T13:52:56.393Z,55.53
2024-04-14T13:54:03.135Z,56.37
2024-04-14T13:55:10.095Z,59.30
2024-04-14T13:56:16.930Z,59.90
2024-04-14T13:57:23.711Z,58.67
2024-04-14T13:58:30.439Z,54.30
2024-04-14T13:59:37.194Z,55.50
2024-04-14T14:00:43.949Z,53.27
2024-04-14T14:01:50.723Z,63.60
2024-04-14T14:02:57.507Z,55.37
2024-04-14T14:04:04.407Z,58.33
2024-04-14T14:05:11.231Z,49.67
2024-04-14T14:06:17.923Z,45.47
2024-04-14T14:07:24.714Z,63.43
2024-04-14T14:08:31.442Z,61.27